Time;durP1;ratioP1;P1;durP2;ratioP2;P2;SDS_P1;SDS_P2;PMS_P1;PMS_P2;Temp;Humidity;BMP_temperature;BMP_pressure;BME280_temperature;BME280_humidity;BME280_pressure;Samples;Min_cycle;Max_cycle;Signal;HPM_P1;HPM_P2
2022/11/19 00:01:28;;;;;;;0.40;0.40;;;;;;;12.39;88.33;93472.56;2617110;47;20304;-74
2022/11/19 00:04:00;;;;;;;0.40;0.40;;;;;;;12.58;87.77;93465.56;2617945;39;20583;-74
2022/11/19 00:06:29;;;;;;;0.30;0.30;;;;;;;12.55;85.08;93467.00;2617247;47;20730;-74
2022/11/19 00:08:58;;;;;;;0.40;0.40;;;;;;;12.71;83.89;93461.38;2617365;54;20165;-73
2022/11/19 00:14:11;;;;;;;0.43;0.43;;;;;;;12.50;81.51;93488.25;2611642;47;20148;-74
2022/11/19 00:16:40;;;;;;;0.60;0.60;;;;;;;12.40;83.57;93488.19;2590353;46;20203;-74
2022/11/19 00:19:12;;;;;;;0.50;0.50;;;;;;;12.55;85.15;93478.38;2618299;47;20152;-75
2022/11/19 00:21:40;;;;;;;0.30;0.30;;;;;;;12.83;85.18;93509.06;2617772;47;20153;-75
2022/11/19 00:24:10;;;;;;;0.70;0.70;;;;;;;12.90;83.70;93493.44;2617825;47;20286;-74
2022/11/19 00:26:39;;;;;;;0.40;0.40;;;;;;;12.77;82.98;93478.47;2617723;47;20228;-75
2022/11/19 00:29:07;;;;;;;0.30;0.30;;;;;;;12.64;82.68;93490.47;2618145;47;20240;-75
2022/11/19 00:31:36;;;;;;;0.40;0.40;;;;;;;12.60;82.16;93488.31;2618599;54;20168;-76
2022/11/19 00:34:05;;;;;;;0.50;0.50;;;;;;;12.44;81.35;93468.34;2618797;47;20141;-74
2022/11/19 00:36:36;;;;;;;0.53;0.53;;;;;;;12.51;83.44;93494.66;2617477;47;20180;-75
2022/11/19 00:39:05;;;;;;;0.30;0.30;;;;;;;12.06;81.95;93488.66;2617406;47;20160;-74
2022/11/19 00:41:34;;;;;;;0.40;0.40;;;;;;;11.89;81.91;93493.47;2617126;47;20196;-74
2022/11/19 00:44:02;;;;;;;0.40;0.40;;;;;;;12.01;82.01;93502.09;2617372;54;20224;-74
2022/11/19 00:46:32;;;;;;;0.40;0.40;;;;;;;11.94;83.04;93494.94;2617174;47;20164;-74
2022/11/19 00:49:01;;;;;;;0.30;0.30;;;;;;;12.03;82.89;93473.72;2617135;47;20156;-75
2022/11/19 00:51:31;;;;;;;0.47;0.47;;;;;;;11.95;82.94;93468.00;2617452;54;20192;-74
2022/11/19 00:54:02;;;;;;;0.40;0.40;;;;;;;11.97;82.60;93492.84;2617504;47;20279;-76
2022/11/19 00:56:31;;;;;;;0.40;0.40;;;;;;;11.98;83.45;93483.63;2617282;54;20273;-74
2022/11/19 00:59:00;;;;;;;0.40;0.40;;;;;;;12.00;81.05;93495.00;2617077;47;20270;-75
2022/11/19 01:01:28;;;;;;;0.47;0.47;;;;;;;11.68;82.52;93450.00;2616707;47;20168;-75
2022/11/19 01:03:57;;;;;;;0.40;0.40;;;;;;;11.98;84.32;93465.91;2617582;47;20184;-75
2022/11/19 01:06:27;;;;;;;0.30;0.30;;;;;;;11.99;82.22;93476.53;2617600;54;20256;-74
2022/11/19 01:08:57;;;;;;;0.50;0.50;;;;;;;12.05;82.54;93481.53;2617886;47;20301;-74
2022/11/19 01:11:30;;;;;;;0.40;0.40;;;;;;;11.93;80.43;93459.47;2617512;47;20168;-74
2022/11/19 01:13:59;;;;;;;0.70;0.70;;;;;;;11.98;81.64;93488.59;2618044;54;20160;-75
2022/11/19 01:16:29;;;;;;;0.40;0.40;;;;;;;11.69;81.26;93459.94;2617488;47;20153;-75
2022/11/19 01:18:59;;;;;;;0.40;0.40;;;;;;;11.82;80.95;93468.59;2617935;47;20209;-74
2022/11/19 01:21:30;;;;;;;0.40;0.40;;;;;;;11.88;81.82;93485.69;2617662;54;20278;-75
2022/11/19 01:23:59;;;;;;;0.40;0.40;;;;;;;11.68;81.10;93452.13;2618577;54;20683;-75
2022/11/19 01:26:30;;;;;;;0.60;0.60;;;;;;;11.83;83.28;93479.25;2618154;47;20160;-75
2022/11/19 01:29:00;;;;;;;0.50;0.50;;;;;;;11.60;82.39;93452.78;2618499;39;21029;-75
2022/11/19 01:31:30;;;;;;;0.40;0.40;;;;;;;11.70;82.02;93472.00;2617695;47;20788;-75
2022/11/19 01:34:00;;;;;;;0.33;0.33;;;;;;;11.73;82.95;93494.03;2617655;54;20187;-76
2022/11/19 01:36:30;;;;;;;0.40;0.40;;;;;;;11.58;83.13;93491.75;2616323;54;20176;-76
2022/11/19 01:38:59;;;;;;;0.50;0.50;;;;;;;11.55;84.80;93473.28;2617571;54;20165;-75
2022/11/19 01:41:32;;;;;;;0.40;0.40;;;;;;;11.56;82.88;93491.72;2619096;39;20355;-75
2022/11/19 01:44:03;;;;;;;0.50;0.50;;;;;;;11.45;83.15;93493.03;2618368;47;20161;-75
2022/11/19 01:46:35;;;;;;;0.40;0.40;;;;;;;11.55;83.38;93504.47;2619223;39;20567;-74
2022/11/19 01:49:07;;;;;;;0.50;0.50;;;;;;;11.64;84.45;93500.31;2616875;47;20762;-75
2022/11/19 01:51:39;;;;;;;0.30;0.30;;;;;;;11.75;83.85;93501.84;2617444;39;20603;-75
2022/11/19 01:54:14;;;;;;;0.40;0.40;;;;;;;11.92;83.93;93497.03;2617760;47;20260;-75
2022/11/19 01:56:45;;;;;;;0.30;0.30;;;;;;;11.90;82.77;93509.09;2618995;54;20172;-74
2022/11/19 01:59:21;;;;;;;0.60;0.60;;;;;;;11.70;82.74;93497.53;2618222;54;20193;-75
2022/11/19 02:01:49;;;;;;;0.60;0.60;;;;;;;12.04;83.54;93499.97;2618043;46;20159;-74
2022/11/19 02:04:20;;;;;;;0.37;0.37;;;;;;;11.97;83.61;93482.19;2617915;54;20181;-75
2022/11/19 02:06:49;;;;;;;1.43;1.07;;;;;;;12.19;86.04;93501.53;2617690;54;20145;-75
2022/11/19 02:09:18;;;;;;;0.40;0.40;;;;;;;12.61;82.55;93492.59;2617823;47;20149;-75
2022/11/19 02:12:12;;;;;;;0.77;0.73;;;;;;;12.64;81.39;93494.03;2617358;47;20180;-75
2022/11/19 02:15:02;;;;;;;0.97;0.97;;;;;;;12.88;81.40;93501.25;2618361;39;20555;-76
2022/11/19 02:17:47;;;;;;;0.40;0.40;;;;;;;12.79;79.19;93506.19;2618050;47;20160;-76
2022/11/19 02:20:46;;;;;;;0.40;0.40;;;;;;;11.90;80.38;93506.25;2617277;46;20164;-76
2022/11/19 02:23:54;;;;;;;0.43;0.43;;;;;;;12.07;86.09;93524.84;2617474;54;20198;-75
2022/11/19 02:26:55;;;;;;;0.80;0.40;;;;;;;11.54;83.68;93497.38;2591551;47;20162;-75
2022/11/19 02:29:50;;;;;;;0.93;0.93;;;;;;;11.57;83.90;93541.38;2617622;47;20278;-75
2022/11/19 02:32:29;;;;;;;0.60;0.60;;;;;;;10.88;86.77;93527.09;2617154;47;20256;-75
2022/11/19 02:35:03;;;;;;;0.40;0.40;;;;;;;10.76;87.37;93534.72;2617601;54;20256;-75
2022/11/19 02:37:42;;;;;;;0.50;0.50;;;;;;;10.55;90.56;93542.91;2617875;47;20164;-75
2022/11/19 02:40:18;;;;;;;0.60;0.60;;;;;;;10.50;89.75;93549.94;2617468;54;20161;-75
2022/11/19 02:42:54;;;;;;;7.10;4.37;;;;;;;9.58;94.30;93541.28;2617654;47;20229;-76
2022/11/19 02:45:28;;;;;;;0.60;0.60;;;;;;;9.89;95.20;93553.88;2617547;47;20156;-74
2022/11/19 02:48:04;;;;;;;0.90;0.90;;;;;;;10.07;97.25;93564.78;2617558;54;20292;-76
2022/11/19 02:50:38;;;;;;;0.87;0.87;;;;;;;10.25;94.60;93539.66;2617529;46;20160;-75
2022/11/19 02:53:07;;;;;;;0.80;0.80;;;;;;;10.16;91.87;93567.06;2618955;54;20192;-75
2022/11/19 02:55:38;;;;;;;0.57;0.57;;;;;;;9.56;94.73;93572.38;2617824;46;20172;-75
2022/11/19 03:04:28;;;;;;;0.77;0.77;;;;;;;9.23;97.76;93579.50;2621014;47;20316;-75
2022/11/19 03:06:31;;;;;;;0.60;0.60;;;;;;;9.19;99.64;93599.91;2617539;47;20173;-75
2022/11/19 03:09:01;;;;;;;0.50;0.50;;;;;;;9.13;100.00;93610.38;2617834;46;20298;-75
2022/11/19 03:11:32;;;;;;;0.73;0.73;;;;;;;8.97;100.00;93607.19;2617333;47;20208;-75
2022/11/19 03:17:09;;;;;;;1.70;0.60;;;;;;;9.51;100.00;93616.09;2617081;47;20159;-75
2022/11/19 03:22:34;;;;;;;0.50;0.50;;;;;;;9.53;100.00;93574.44;2618678;39;20583;-75
2022/11/19 03:25:07;;;;;;;1.50;1.40;;;;;;;10.68;96.85;93623.78;2617557;46;20661;-75
2022/11/19 03:27:41;;;;;;;0.50;0.50;;;;;;;10.54;90.49;93606.59;2617236;54;20161;-76
2022/11/19 03:30:12;;;;;;;0.77;0.77;;;;;;;10.22;92.46;93609.63;2617200;47;20172;-76
2022/11/19 03:32:46;;;;;;;0.90;0.90;;;;;;;9.99;93.12;93604.94;2617163;54;20294;-75
2022/11/19 03:35:21;;;;;;;0.87;0.87;;;;;;;9.71;93.17;93602.31;2617425;47;20156;-75
2022/11/19 03:37:54;;;;;;;0.70;0.70;;;;;;;9.48;95.28;93600.47;2617250;47;20168;-75
2022/11/19 03:40:25;;;;;;;0.70;0.70;;;;;;;10.65;98.19;93622.34;2617208;47;20192;-75
2022/11/19 03:42:56;;;;;;;0.80;0.80;;;;;;;10.97;91.69;93633.44;2617299;47;20175;-75
2022/11/19 03:45:29;;;;;;;0.73;0.67;;;;;;;10.29;88.55;93596.28;2618123;39;20580;-76
2022/11/19 03:47:59;;;;;;;0.60;0.60;;;;;;;11.21;90.84;93638.72;2617783;47;20267;-75
2022/11/19 03:50:39;;;;;;;1.30;1.03;;;;;;;11.59;86.88;93630.00;2618089;54;20277;-75
2022/11/19 03:53:08;;;;;;;0.57;0.57;;;;;;;11.89;84.55;93623.97;2618083;47;20181;-76
2022/11/19 03:55:41;;;;;;;0.80;0.80;;;;;;;11.55;83.89;93643.41;2617719;47;20161;-76
2022/11/19 03:58:12;;;;;;;0.60;0.60;;;;;;;12.43;85.07;93617.44;2618217;47;20153;-75
2022/11/19 04:00:41;;;;;;;1.13;1.03;;;;;;;12.36;79.49;93644.31;2617519;47;20160;-75
2022/11/19 04:03:09;;;;;;;4.20;0.80;;;;;;;11.85;81.82;93652.31;2617117;47;20185;-76
2022/11/19 04:05:41;;;;;;;0.77;0.77;;;;;;;12.56;84.23;93653.03;2618892;54;20221;-75
2022/11/19 04:08:09;;;;;;;0.93;0.93;;;;;;;12.74;77.56;93656.00;2617619;39;20547;-75
2022/11/19 04:10:38;;;;;;;1.10;0.63;;;;;;;11.65;80.29;93663.38;2618060;47;20713;-75
2022/11/19 04:13:06;;;;;;;0.87;0.87;;;;;;;11.13;82.59;93658.44;2617738;54;20180;-75
2022/11/19 04:15:35;;;;;;;0.88;0.88;;;;;;;11.44;85.39;93670.94;2617458;54;20935;-75
2022/11/19 04:18:04;;;;;;;0.70;0.70;;;;;;;11.23;82.87;93684.09;2617178;54;20184;-76
2022/11/19 04:20:32;;;;;;;0.90;0.90;;;;;;;11.47;81.66;93688.69;2617674;46;20244;-76
2022/11/19 04:23:04;;;;;;;0.80;0.80;;;;;;;10.43;83.50;93678.59;2611369;47;20259;-76
2022/11/19 04:25:32;;;;;;;1.20;1.20;;;;;;;10.07;87.28;93680.75;2616963;47;20669;-76
2022/11/19 04:28:01;;;;;;;1.00;1.00;;;;;;;8.80;92.34;93685.19;2616894;54;20438;-76
2022/11/19 04:30:30;;;;;;;1.20;1.20;;;;;;;9.12;94.75;93679.56;2616928;54;20244;-76
2022/11/19 04:32:58;;;;;;;0.57;0.57;;;;;;;10.51;96.16;93687.25;2616428;47;20156;-76
2022/11/19 04:35:27;;;;;;;1.50;1.47;;;;;;;11.03;89.85;93680.97;2616589;47;20274;-75
2022/11/19 04:37:55;;;;;;;3.78;3.47;;;;;;;10.84;83.31;93691.31;2616206;50;20609;-76
2022/11/19 04:40:26;;;;;;;0.53;0.53;;;;;;;10.84;86.71;93708.28;2616656;47;20293;-76
2022/11/19 04:42:55;;;;;;;0.83;0.83;;;;;;;10.83;86.32;93708.97;2617771;47;20161;-76
2022/11/19 04:45:24;;;;;;;1.27;1.27;;;;;;;10.84;86.96;93711.13;2616651;47;20280;-76
2022/11/19 04:47:52;;;;;;;3.93;1.07;;;;;;;10.73;86.67;93709.53;2616904;54;20202;-75
2022/11/19 04:50:21;;;;;;;0.60;0.60;;;;;;;11.34;87.58;93705.50;2617216;39;20583;-75
2022/11/19 04:52:50;;;;;;;0.90;0.90;;;;;;;10.85;85.18;93697.69;2616541;54;20216;-76
2022/11/19 04:55:19;;;;;;;1.40;1.00;;;;;;;10.44;86.82;93707.63;2617155;39;20911;-75
2022/11/19 04:57:52;;;;;;;1.07;1.07;;;;;;;10.29;88.60;93717.97;2616311;54;20176;-75
2022/11/19 05:00:21;;;;;;;2.83;1.00;;;;;;;11.32;91.19;93710.44;2616673;49;20692;-75
2022/11/19 05:02:49;;;;;;;0.80;0.73;;;;;;;11.93;87.36;93729.00;2614607;47;20202;-75
2022/11/19 05:05:18;;;;;;;1.00;1.00;;;;;;;12.27;81.31;93734.38;2616601;47;20181;-74
2022/11/19 05:07:47;;;;;;;7.13;1.37;;;;;;;12.63;81.37;93744.69;2616547;47;20181;-77
2022/11/19 05:10:16;;;;;;;0.80;0.80;;;;;;;13.09;79.86;93741.56;2616551;54;20161;-75
2022/11/19 05:12:44;;;;;;;1.30;1.20;;;;;;;13.27;77.06;93764.47;2616302;54;20157;-75
2022/11/19 05:15:16;;;;;;;2.50;1.70;;;;;;;12.82;74.34;93766.19;2616613;47;20152;-75
2022/11/19 05:17:44;;;;;;;2.00;1.37;;;;;;;12.66;76.51;93775.25;2617671;54;20176;-75
2022/11/19 05:20:14;;;;;;;1.23;1.23;;;;;;;12.91;76.29;93778.34;2616669;54;20148;-76
2022/11/19 05:22:42;;;;;;;0.87;0.87;;;;;;;12.60;75.29;93812.09;2621145;47;20693;-76
2022/11/19 05:25:11;;;;;;;0.67;0.67;;;;;;;11.13;78.04;93810.75;2620035;47;20176;-76
2022/11/19 05:27:40;;;;;;;1.97;1.87;;;;;;;10.74;83.72;93817.88;2616320;47;20285;-75
2022/11/19 05:30:10;;;;;;;0.83;0.83;;;;;;;11.23;85.05;93817.31;2616355;47;20315;-76
2022/11/19 05:32:41;;;;;;;1.70;1.60;;;;;;;11.23;84.20;93820.13;2616495;47;20253;-76
2022/11/19 05:35:11;;;;;;;2.50;1.70;;;;;;;11.48;83.74;93826.22;2615064;47;20154;-75
2022/11/19 05:37:40;;;;;;;1.93;1.83;;;;;;;11.59;82.64;93828.50;2617294;46;20181;-75
2022/11/19 05:40:10;;;;;;;2.73;1.63;;;;;;;11.84;82.45;93826.78;2617250;54;20195;-75
2022/11/19 05:42:39;;;;;;;2.77;0.90;;;;;;;12.60;81.94;93843.34;2616988;46;20169;-75
2022/11/19 05:45:09;;;;;;;0.77;0.77;;;;;;;13.15;79.59;93847.53;2616870;54;20878;-74
2022/11/19 05:47:37;;;;;;;2.27;2.07;;;;;;;13.59;76.59;93857.16;2616731;47;20157;-75
2022/11/19 05:50:09;;;;;;;2.13;1.63;;;;;;;13.78;74.81;93850.91;2616261;47;20157;-75
2022/11/19 05:52:38;;;;;;;1.53;1.10;;;;;;;13.50;73.07;93851.41;2617634;54;20300;-76
2022/11/19 05:55:08;;;;;;;1.03;1.03;;;;;;;12.98;74.61;93865.81;2617523;47;20286;-76
2022/11/19 05:57:37;;;;;;;3.40;3.10;;;;;;;12.85;77.60;93855.69;2617473;39;20817;-75
2022/11/19 06:00:07;;;;;;;1.90;1.80;;;;;;;12.43;75.41;93853.09;2617427;54;20168;-75
2022/11/19 06:02:35;;;;;;;2.67;2.27;;;;;;;11.51;79.75;93848.22;2617338;47;20169;-75
2022/11/19 06:05:04;;;;;;;2.10;2.00;;;;;;;12.23;81.88;93844.31;2617781;47;20165;-75
2022/11/19 06:07:35;;;;;;;1.60;1.50;;;;;;;13.14;78.53;93854.63;2618364;46;20267;-74
2022/11/19 06:10:04;;;;;;;0.97;0.97;;;;;;;13.52;75.88;93859.25;2617486;47;20173;-74
2022/11/19 06:12:33;;;;;;;2.07;1.90;;;;;;;13.68;74.51;93872.88;2617544;46;20287;-75
2022/11/19 06:15:02;;;;;;;10.23;6.17;;;;;;;12.29;73.39;93870.69;2617295;54;20791;-74
2022/11/19 06:17:31;;;;;;;2.83;2.57;;;;;;;11.73;78.43;93879.06;2617238;54;20160;-74
2022/11/19 06:19:59;;;;;;;1.77;1.67;;;;;;;11.53;79.95;93890.78;2617750;47;20164;-75
2022/11/19 06:22:31;;;;;;;3.07;1.93;;;;;;;12.37;82.00;93906.97;2617885;47;20157;-76
2022/11/19 06:25:02;;;;;;;2.80;2.13;;;;;;;12.99;75.81;93907.00;2618069;54;20173;-77
2022/11/19 06:27:31;;;;;;;3.70;2.67;;;;;;;13.00;75.09;93911.28;2617628;47;20735;-76
2022/11/19 06:29:59;;;;;;;2.07;1.97;;;;;;;12.13;76.34;93930.06;2618873;48;20246;-75
2022/11/19 06:32:28;;;;;;;5.77;4.13;;;;;;;11.63;78.10;93921.44;2618999;31;20641;-77
2022/11/19 06:34:57;;;;;;;3.07;2.83;;;;;;;11.14;82.34;93937.59;2618105;54;20164;-77
2022/11/19 06:37:25;;;;;;;2.10;1.90;;;;;;;10.63;83.07;93921.75;2619676;47;20168;-79
2022/11/19 06:39:54;;;;;;;1.40;1.30;;;;;;;11.14;85.44;93939.72;2618702;47;20165;-77
2022/11/19 06:42:37;;;;;;;2.03;1.90;;;;;;;11.67;84.38;93933.56;2618492;39;20800;-77
2022/11/19 06:45:08;;;;;;;2.40;2.30;;;;;;;11.99;83.61;93944.03;2618189;47;20160;-77
2022/11/19 06:47:37;;;;;;;3.00;2.73;;;;;;;12.09;81.71;93949.88;2617783;54;20165;-77
2022/11/19 06:50:07;;;;;;;3.43;2.80;;;;;;;11.70;82.70;93960.56;2618230;39;20620;-77
2022/11/19 06:52:36;;;;;;;1.90;1.70;;;;;;;12.34;83.48;93960.16;2618074;54;20192;-76
2022/11/19 06:55:05;;;;;;;2.80;2.60;;;;;;;13.00;77.35;93970.25;2617677;47;20243;-78
2022/11/19 06:57:36;;;;;;;4.20;3.78;;;;;;;13.10;76.63;93965.44;2617345;47;20495;-78
2022/11/19 07:00:06;;;;;;;5.63;4.53;;;;;;;12.76;78.83;93962.16;2617567;54;20687;-79
2022/11/19 07:02:34;;;;;;;2.93;2.53;;;;;;;12.34;81.22;93967.97;2617690;54;20191;-77
2022/11/19 07:05:03;;;;;;;3.83;3.33;;;;;;;12.40;80.86;93965.22;2617847;47;20774;-80
2022/11/19 07:07:32;;;;;;;3.10;2.37;;;;;;;12.24;80.17;93971.38;2618084;54;20153;-79
2022/11/19 07:10:01;;;;;;;2.33;2.10;;;;;;;12.00;81.78;93977.41;2617967;54;20171;-79
2022/11/19 07:12:29;;;;;;;3.87;2.63;;;;;;;11.95;82.47;93978.72;2617949;47;20167;-79
2022/11/19 07:15:01;;;;;;;3.57;3.27;;;;;;;11.91;81.64;93980.78;2618589;54;20189;-79
2022/11/19 07:17:29;;;;;;;3.10;2.90;;;;;;;11.06;86.24;93977.13;2618810;47;20179;-84
2022/11/19 07:19:58;;;;;;;3.85;3.22;;;;;;;10.73;88.50;93981.41;2609613;47;20447;-78
2022/11/19 07:22:27;;;;;;;3.07;2.73;;;;;;;10.93;90.88;93972.63;2616975;47;20153;-78
2022/11/19 07:24:55;;;;;;;3.43;3.13;;;;;;;11.07;93.74;93970.03;2616520;46;20169;-79
2022/11/19 07:27:24;;;;;;;2.60;2.50;;;;;;;11.68;90.78;93969.03;2616166;47;20195;-78
2022/11/19 07:29:53;;;;;;;5.73;3.50;;;;;;;12.52;84.71;93956.88;2616255;47;20190;-78
2022/11/19 07:32:24;;;;;;;3.47;3.17;;;;;;;13.25;93.56;93943.59;2616776;47;20217;-78
2022/11/19 07:34:53;;;;;;;2.77;2.60;;;;;;;13.95;94.59;93965.59;2616581;54;20173;-78
2022/11/19 07:37:21;;;;;;;1.97;1.37;;;;;;;14.23;84.06;93968.66;2617525;47;20195;-79
2022/11/19 07:39:50;;;;;;;1.47;1.47;;;;;;;14.48;86.72;93949.66;2618229;47;20180;-79
2022/11/19 07:45:02;;;;;;;2.67;2.47;;;;;;;14.31;81.43;93981.53;2618151;47;20172;-77
2022/11/19 07:47:35;;;;;;;2.50;2.30;;;;;;;13.48;83.90;93981.50;2618147;54;20169;-77
2022/11/19 07:50:03;;;;;;;13.23;6.67;;;;;;;13.44;83.63;93976.50;2620061;39;20739;-78
2022/11/19 07:52:32;;;;;;;2.37;2.17;;;;;;;13.56;85.22;93969.50;2617557;46;20232;-77
2022/11/19 07:55:01;;;;;;;5.57;2.13;;;;;;;14.39;75.46;93987.28;2617872;46;20224;-78
2022/11/19 07:57:29;;;;;;;2.27;2.07;;;;;;;14.71;77.28;93976.13;2610205;47;20262;-77
2022/11/19 07:59:58;;;;;;;2.07;1.93;;;;;;;15.12;77.66;93982.75;2615488;47;20765;-78
2022/11/19 08:02:26;;;;;;;1.97;1.87;;;;;;;15.27;75.27;93997.78;2616697;54;20168;-78
2022/11/19 08:04:58;;;;;;;2.03;1.63;;;;;;;15.23;69.98;94006.34;2615843;54;20188;-75
2022/11/19 08:07:26;;;;;;;2.40;1.97;;;;;;;15.17;72.15;93983.50;2616397;47;20169;-76
2022/11/19 08:09:55;;;;;;;1.13;1.10;;;;;;;15.06;71.66;94011.25;2616910;54;20217;-77
2022/11/19 08:12:23;;;;;;;1.93;1.83;;;;;;;15.34;72.92;94009.94;2616782;54;20176;-77
2022/11/19 08:14:52;;;;;;;1.77;1.77;;;;;;;15.44;74.08;93999.28;2617207;46;20168;-77
2022/11/19 08:20:05;;;;;;;1.93;1.83;;;;;;;15.68;71.92;94015.78;2616618;47;20755;-75
2022/11/19 08:22:34;;;;;;;1.87;1.73;;;;;;;15.98;72.03;94024.44;2617725;54;20839;-76
2022/11/19 08:25:03;;;;;;;1.83;1.73;;;;;;;16.15;71.77;94010.88;2617436;54;20168;-74
2022/11/19 08:27:32;;;;;;;2.60;2.40;;;;;;;16.23;69.47;94019.47;2617137;47;20415;-78
2022/11/19 08:30:00;;;;;;;1.97;1.87;;;;;;;16.30;66.69;94011.59;2617022;46;20196;-79
2022/11/19 08:32:29;;;;;;;2.10;2.00;;;;;;;16.11;65.30;94018.75;2617911;47;20172;-79
2022/11/19 08:34:57;;;;;;;1.73;1.63;;;;;;;16.25;68.31;94025.19;2618598;47;20244;-79
2022/11/19 08:37:29;;;;;;;3.55;2.53;;;;;;;16.57;68.04;94020.88;2617974;54;20464;-79
2022/11/19 08:39:57;;;;;;;1.40;1.37;;;;;;;16.88;66.97;94022.31;2617827;47;20272;-79
2022/11/19 08:45:08;;;;;;;2.47;1.90;;;;;;;16.97;69.77;94023.72;2618270;39;20554;-76
2022/11/19 08:47:37;;;;;;;1.77;1.07;;;;;;;16.90;65.63;94015.88;2617180;47;20200;-77
2022/11/19 08:50:06;;;;;;;4.00;1.50;;;;;;;16.78;66.02;94007.31;2618352;47;20224;-78
2022/11/19 08:52:38;;;;;;;1.93;1.83;;;;;;;17.04;68.19;94015.84;2618668;31;20697;-79
2022/11/19 08:55:07;;;;;;;1.17;1.17;;;;;;;16.49;66.94;94015.19;2615291;47;20153;-79
2022/11/19 08:57:36;;;;;;;2.17;1.97;;;;;;;16.93;67.66;94015.16;2617596;54;20199;-78
2022/11/19 09:00:06;;;;;;;2.50;1.73;;;;;;;16.56;66.96;94030.88;2617340;54;20212;-79
2022/11/19 09:02:35;;;;;;;4.60;2.10;;;;;;;16.41;68.54;94026.59;2624315;47;20176;-80
2022/11/19 09:05:03;;;;;;;1.40;1.30;;;;;;;16.76;66.18;94027.34;2626599;54;20249;-80
2022/11/19 09:07:32;;;;;;;1.80;1.70;;;;;;;16.82;64.89;94033.75;2614954;54;20179;-76
2022/11/19 09:10:04;;;;;;;1.60;1.50;;;;;;;17.07;65.34;94028.00;2616151;54;20225;-80
2022/11/19 09:12:32;;;;;;;1.63;1.53;;;;;;;16.53;64.49;94040.91;2617282;46;20211;-78
2022/11/19 09:15:01;;;;;;;5.13;3.72;;;;;;;16.88;66.16;94027.31;2616027;54;20475;-78
2022/11/19 09:17:30;;;;;;;2.17;2.03;;;;;;;17.33;67.44;94045.81;2616994;47;20199;-77
2022/11/19 09:19:58;;;;;;;1.50;1.40;;;;;;;17.27;64.83;94051.53;2616713;54;20165;-78
2022/11/19 09:22:27;;;;;;;3.63;2.03;;;;;;;17.01;61.79;94038.00;2616742;47;20248;-76
2022/11/19 09:24:55;;;;;;;1.60;1.23;;;;;;;17.11;63.59;94037.28;2616610;47;20169;-77
2022/11/19 09:27:27;;;;;;;1.63;1.53;;;;;;;17.22;64.83;94020.81;2617787;47;20184;-76
2022/11/19 09:29:55;;;;;;;0.70;0.70;;;;;;;17.28;63.62;94026.50;2618989;54;20173;-78
2022/11/19 09:32:24;;;;;;;0.80;0.80;;;;;;;17.25;63.31;94013.63;2617665;54;20276;-76
2022/11/19 09:34:53;;;;;;;1.20;1.17;;;;;;;17.32;63.60;94007.19;2617964;47;20286;-77
2022/11/19 09:37:21;;;;;;;1.67;1.57;;;;;;;17.17;61.14;94005.78;2617681;47;20245;-76
2022/11/19 09:39:50;;;;;;;1.70;1.60;;;;;;;17.29;62.86;93991.44;2617865;47;20149;-77
2022/11/19 09:42:25;;;;;;;1.00;0.97;;;;;;;17.64;63.74;94000.59;2618008;47;20264;-77
2022/11/19 09:45:23;;;;;;;1.40;1.30;;;;;;;17.70;62.81;93997.00;2618330;54;20265;-76
2022/11/19 09:48:10;;;;;;;1.93;1.83;;;;;;;17.45;64.66;93978.50;2617271;47;20207;-77
2022/11/19 09:50:49;;;;;;;1.30;1.20;;;;;;;17.08;60.54;93975.06;2618121;54;20280;-76
2022/11/19 09:53:21;;;;;;;0.87;0.87;;;;;;;17.01;62.54;93969.38;2618443;46;20273;-77
2022/11/19 09:55:54;;;;;;;1.10;1.10;;;;;;;16.82;64.29;93961.53;2618049;47;20164;-78
2022/11/19 09:58:28;;;;;;;1.70;1.60;;;;;;;16.78;64.66;93970.16;2618111;31;20757;-77
2022/11/19 10:00:59;;;;;;;1.50;1.47;;;;;;;16.95;64.35;93975.09;2618608;46;20173;-76
2022/11/19 10:03:29;;;;;;;1.23;1.13;;;;;;;17.11;61.21;93959.31;2618002;54;20209;-75
2022/11/19 10:06:23;;;;;;;1.30;1.13;;;;;;;16.85;63.15;93971.53;2616741;54;20723;-76
2022/11/19 10:09:21;;;;;;;0.73;0.73;;;;;;;16.88;59.88;93967.25;2616486;46;20710;-76
2022/11/19 10:12:01;;;;;;;1.00;1.00;;;;;;;16.99;61.34;93940.75;2616667;49;20165;-78
2022/11/19 10:14:49;;;;;;;0.70;0.47;;;;;;;16.59;63.06;93940.84;2617054;47;20272;-78
2022/11/19 10:17:37;;;;;;;1.23;1.23;;;;;;;16.63;62.32;93949.44;2619092;47;20165;-78
2022/11/19 10:20:19;;;;;;;1.13;1.13;;;;;;;17.00;64.24;93933.59;2617487;54;20214;-78
2022/11/19 10:22:53;;;;;;;1.07;1.07;;;;;;;16.31;60.75;93956.59;2617308;46;20289;-78
2022/11/19 10:25:25;;;;;;;0.82;0.82;;;;;;;16.71;61.80;93958.00;2617049;47;20500;-80
2022/11/19 10:27:56;;;;;;;0.70;0.70;;;;;;;17.01;59.31;93943.63;2616766;54;20153;-80
2022/11/19 10:30:30;;;;;;;0.93;0.93;;;;;;;16.60;64.73;93956.56;2617451;47;20184;-77
2022/11/19 10:33:04;;;;;;;1.07;1.00;;;;;;;16.43;60.63;93949.44;2617427;46;20185;-78
2022/11/19 10:35:39;;;;;;;0.90;0.90;;;;;;;16.94;64.50;93955.81;2617189;50;20160;-78
2022/11/19 10:38:18;;;;;;;0.57;0.57;;;;;;;17.16;63.23;93952.84;2617100;47;20165;-77
2022/11/19 10:40:52;;;;;;;0.80;0.80;;;;;;;16.84;60.28;93939.38;2617200;47;20236;-75
2022/11/19 10:43:28;;;;;;;1.03;1.03;;;;;;;16.50;62.22;93948.00;2617374;47;20168;-77
2022/11/19 10:45:58;;;;;;;0.87;0.87;;;;;;;16.60;61.09;93928.69;2616876;48;20161;-77
2022/11/19 10:48:40;;;;;;;0.83;0.83;;;;;;;16.86;59.76;93932.94;2617224;47;20221;-77
2022/11/19 10:51:14;;;;;;;1.00;1.00;;;;;;;16.76;59.00;93944.41;2617536;54;20187;-76
2022/11/19 10:53:44;;;;;;;0.67;0.67;;;;;;;16.76;59.29;93921.53;2617286;47;20167;-77
2022/11/19 10:56:17;;;;;;;0.87;0.87;;;;;;;16.43;60.54;93921.56;2617444;39;20286;-75
2022/11/19 10:58:50;;;;;;;0.80;0.80;;;;;;;16.61;59.67;93940.84;2616215;54;20717;-75
2022/11/19 11:01:27;;;;;;;1.37;1.03;;;;;;;16.51;61.99;93927.28;2617208;47;20161;-75
2022/11/19 11:04:09;;;;;;;1.23;1.10;;;;;;;15.85;62.34;93930.91;2616723;47;20161;-77
2022/11/19 11:06:56;;;;;;;0.60;0.60;;;;;;;16.31;64.73;93933.72;2618662;54;20156;-79
2022/11/19 11:09:33;;;;;;;1.00;1.00;;;;;;;16.05;61.17;93930.88;2617604;54;20157;-81
2022/11/19 11:15:02;;;;;;;1.03;0.93;;;;;;;16.51;62.60;93912.28;2619119;47;20167;-81
2022/11/19 11:17:34;;;;;;;0.70;0.70;;;;;;;16.71;61.05;93909.38;2615950;54;20300;-78
2022/11/19 11:20:08;;;;;;;0.70;0.70;;;;;;;16.68;60.05;93913.69;2617392;39;20568;-78
2022/11/19 11:22:37;;;;;;;2.33;2.23;;;;;;;16.42;61.17;93913.72;2617344;39;20580;-81
2022/11/19 11:25:21;;;;;;;3.40;3.10;;;;;;;16.67;60.29;93926.56;2619429;47;20298;-79
2022/11/19 11:28:06;;;;;;;0.63;0.63;;;;;;;16.28;60.95;93929.44;2620880;47;20684;-79
2022/11/19 11:30:35;;;;;;;0.93;0.93;;;;;;;15.97;60.89;93911.63;2620117;47;20699;-79
2022/11/19 11:33:27;;;;;;;1.23;1.23;;;;;;;15.82;61.74;93870.22;2617132;47;20207;-80
2022/11/19 11:36:02;;;;;;;1.20;1.20;;;;;;;16.33;61.07;93902.31;2616420;54;20296;-80
2022/11/19 11:38:31;;;;;;;1.10;1.10;;;;;;;16.45;60.87;93880.84;2616082;54;20176;-79
2022/11/19 11:41:06;;;;;;;3.67;1.40;;;;;;;16.56;61.18;93911.53;2615543;47;20405;-78
2022/11/19 11:43:39;;;;;;;1.13;1.13;;;;;;;16.43;60.27;93878.00;2616802;46;20172;-77
2022/11/19 11:46:24;;;;;;;0.70;0.70;;;;;;;16.40;62.29;93900.13;2617164;39;20562;-77
2022/11/19 11:48:53;;;;;;;1.77;1.60;;;;;;;16.65;61.29;93906.56;2615503;47;20169;-78
2022/11/19 11:51:38;;;;;;;0.90;0.90;;;;;;;16.75;60.58;93908.66;2615923;47;20321;-78
2022/11/19 11:54:16;;;;;;;2.30;1.47;;;;;;;17.13;63.78;93910.66;2616838;47;22286;-79
2022/11/19 11:56:46;;;;;;;1.27;0.83;;;;;;;16.83;60.69;93897.91;2614789;47;20313;-79
2022/11/19 11:59:25;;;;;;;1.30;1.20;;;;;;;16.90;62.03;93899.31;2615935;54;20145;-78
2022/11/19 12:01:58;;;;;;;2.93;1.33;;;;;;;16.24;62.14;93888.75;2615249;47;20157;-80
2022/11/19 12:04:27;;;;;;;1.90;1.80;;;;;;;16.56;64.76;93894.38;2616324;47;20306;-78
2022/11/19 12:07:13;;;;;;;1.67;1.00;;;;;;;16.57;62.10;93904.41;2616443;47;20173;-81
2022/11/19 12:09:51;;;;;;;1.03;1.03;;;;;;;16.73;65.36;93894.38;2617137;47;20310;-77
2022/11/19 12:12:30;;;;;;;1.00;1.00;;;;;;;17.08;65.58;93901.41;2614033;39;20872;-83
2022/11/19 12:15:05;;;;;;;0.90;0.90;;;;;;;17.31;62.89;93902.00;2616638;54;20161;-83
2022/11/19 12:17:45;;;;;;;0.60;0.60;;;;;;;17.41;63.21;93899.06;2616982;47;20263;-81
2022/11/19 12:20:35;;;;;;;1.00;1.00;;;;;;;17.26;60.55;93887.00;2616812;47;20249;-79
2022/11/19 12:23:25;;;;;;;3.10;1.17;;;;;;;16.87;60.66;93852.16;2616604;54;20176;-81